Madison Lake, MN (56063)

9:44 PM CDT on July 26, 2016 (GMT -0500)
Marysburg | | Change Station

Elev 1047 ft 44.25 °N, 93.81 °W | Updated 13 minutes ago

Clear
Clear
75.5 °F
Feels Like 76 °F
N
6.0
Wind Variable Wind from SSW

Today
High -- | Low -- °F
--% Chance of Precip.
Yesterday
High -- | Low -- °F
Precip. -- in
Pressure 29.99 in
Visibility 10.0 miles
Clouds Clear
Heat Index 76 °F
Dew Point 33 °F
Humidity 21%
Rainfall 0.00 in
Snow Depth Not available.
5:56 AM 8:45 PM
Waning Gibbous, 48% visible
METAR KMKT 270235Z 18006KT 10SM CLR 24/19 A2999 RMK AO1
Pressure 29.99 in
Visibility 10.0 miles
Clouds Clear
Heat Index 76 °F
Dew Point 33 °F
Humidity 21%
Rainfall 0.00 in
Snow Depth Not available.
5:56 AM 8:45 PM
Waning Gibbous, 48% visible
METAR KMKT 270235Z 18006KT 10SM CLR 24/19 A2999 RMK AO1

10-Day Weather Forecast

Almanac

Astronomy

Jul. 26, 2016 Rise Set
Actual Time
Civil Twilight
Nautical Twilight
Astronomical Twilight
Moon
Length of Visible Light
Length of Day
Tomorrow will be .
, % of the Moon is Illuminated

Today's Extremes

State Highs State Lows

Community

WunderPhotos

Upload Photos

1,927,784 photos uploaded!

WunderBlog® & News

Nearby

Air Quality

  Air Quality AQ Index Pollutant
Not available.

Snow Depth

Station Depth Elevation

Earthquake Activity

City Distance Mag. Time & Date
Minimum magnitude displayed is 2.5.

Coastal Water Temperatures

Place Temperature

Stations

Nearby Weather Stations

Station Location Temp. Windchill Dew Point Humidity Wind Precip. Elev Updated Type
                   

Watches & Warnings

There are currently no watches in effect.